Time;durP1;ratioP1;P1;durP2;ratioP2;P2;SDS_P1;SDS_P2;PMS_P1;PMS_P2;Temp;Humidity;BMP_temperature;BMP_pressure;BME280_temperature;BME280_humidity;BME280_pressure;Samples;Min_cycle;Max_cycle;Signal;HPM_P1;HPM_P2
2022/05/04 00:02:29;;;;;;;13.25;8.70;;;230.40;2252.80;;;;;;4818743;29;20135;-83
2022/05/04 00:04:58;;;;;;;14.30;8.73;;;230.60;2252.80;;;;;;4822049;29;20131;-84
2022/05/04 00:07:26;;;;;;;16.58;9.93;;;230.50;2252.80;;;;;;4844944;29;20033;-83
2022/05/04 00:09:57;;;;;;;22.77;13.25;;;230.50;2252.80;;;;;;4828657;29;20404;-82
2022/05/04 00:12:25;;;;;;;17.08;11.27;;;230.40;2252.80;;;;;;4844003;29;20034;-84
2022/05/04 00:14:57;;;;;;;16.42;11.15;;;230.40;2252.80;;;;;;4859307;29;20038;-83
2022/05/04 00:17:26;;;;;;;18.08;10.95;;;230.40;2252.80;;;;;;4858449;29;20061;-84
2022/05/04 00:19:54;;;;;;;16.52;11.90;;;230.40;2252.80;;;;;;4872603;29;20040;-83
2022/05/04 00:22:22;;;;;;;15.73;11.20;;;230.40;2252.80;;;;;;4896346;29;20040;-83
2022/05/04 00:25:12;;;;;;;18.52;10.10;;;205.70;2252.80;;;;;;4896291;29;20037;-83
2022/05/04 00:27:53;;;;;;;15.38;9.88;;;205.60;2252.80;;;;;;4895539;29;20043;-82
2022/05/04 00:30:27;;;;;;;13.68;9.93;;;205.70;2252.80;;;;;;4895051;29;20036;-83
2022/05/04 00:36:32;;;;;;;13.88;10.27;;;205.70;2252.80;;;;;;4841852;29;20045;-82
2022/05/04 00:43:34;;;;;;;13.20;9.10;;;205.60;2252.80;;;;;;4805961;29;20050;-83
2022/05/04 00:50:16;;;;;;;14.18;8.57;;;205.40;2252.80;;;;;;4785982;29;20033;-84
2022/05/04 00:53:27;;;;;;;14.07;9.18;;;205.40;2252.80;;;;;;4697597;30;20493;-83
2022/05/04 00:56:58;;;;;;;12.90;9.85;;;205.10;2252.80;;;;;;4674495;30;20121;-84
2022/05/04 00:59:57;;;;;;;14.80;10.23;;;205.00;2252.80;;;;;;4663642;30;20179;-82
2022/05/04 01:03:03;;;;;;;12.38;9.35;;;205.00;2252.80;;;;;;4649297;30;20130;-82
2022/05/04 01:06:00;;;;;;;17.83;11.05;;;205.10;2252.80;;;;;;4663809;30;20117;-81
2022/05/04 01:08:29;;;;;;;14.07;10.13;;;205.20;2252.80;;;;;;4714346;30;20127;-81
2022/05/04 01:11:41;;;;;;;23.88;17.15;;;205.20;2252.80;;;;;;4714977;30;20182;-82
2022/05/04 01:14:35;;;;;;;22.30;14.90;;;205.30;2252.80;;;;;;4698004;30;20051;-83
2022/05/04 01:18:03;;;;;;;22.30;14.05;;;205.30;2252.80;;;;;;4753748;30;20105;-83
2022/05/04 01:21:11;;;;;;;10.07;7.45;;;205.30;2252.80;;;;;;4769497;30;20035;-82
2022/05/04 01:24:33;;;;;;;10.38;6.15;;;205.50;2252.80;;;;;;4727514;30;20527;-82
2022/05/04 01:27:37;;;;;;;10.15;6.95;;;205.60;2252.80;;;;;;4765405;30;20105;-83
2022/05/04 01:31:06;;;;;;;13.18;7.20;;;205.60;2252.80;;;;;;4775070;30;20084;-81
2022/05/04 01:34:15;;;;;;;15.73;9.40;;;205.40;2252.80;;;;;;4858057;29;20028;-80
2022/05/04 01:37:13;;;;;;;;;;;205.30;2252.80;;;;;;4886206;29;20096;-81
2022/05/04 01:40:09;;;;;;;22.42;14.20;;;205.10;2252.80;;;;;;4902907;29;19896;-81
2022/05/04 01:42:54;;;;;;;19.48;13.27;;;205.20;2252.80;;;;;;4869390;29;20045;-79
2022/05/04 01:45:22;;;;;;;19.42;13.82;;;205.30;2252.80;;;;;;4875671;29;20045;-81
2022/05/04 01:47:55;;;;;;;14.23;9.02;;;205.40;2252.80;;;;;;4863318;29;20044;-82
2022/05/04 01:51:05;;;;;;;11.27;7.72;;;205.30;2252.80;;;;;;4901232;29;20039;-80
2022/05/04 01:54:03;;;;;;;13.73;8.38;;;205.10;2252.80;;;;;;4897245;29;20047;-81
2022/05/04 01:56:46;;;;;;;16.70;11.10;;;205.10;2252.80;;;;;;4900388;29;20049;-79
2022/05/04 01:59:15;;;;;;;17.00;11.10;;;205.10;2252.80;;;;;;4884554;29;20074;-81
2022/05/04 02:02:11;;;;;;;16.83;10.60;;;205.00;2252.80;;;;;;4901034;29;20035;-81
2022/05/04 02:04:48;;;;;;;11.05;7.90;;;205.00;2252.80;;;;;;4883686;29;20033;-78
2022/05/04 02:07:24;;;;;;;10.30;7.10;;;205.00;2252.80;;;;;;4901138;29;20108;-81
2022/05/04 02:09:58;;;;;;;9.63;6.90;;;204.90;2252.80;;;;;;4883600;29;20040;-81
2022/05/04 02:12:27;;;;;;;11.20;7.28;;;204.90;2252.80;;;;;;4883916;29;20044;-80
2022/05/04 02:15:17;;;;;;;12.32;8.90;;;204.90;2252.80;;;;;;4868739;29;20032;-81
2022/05/04 02:18:00;;;;;;;12.63;7.65;;;204.90;2252.80;;;;;;4880252;29;20043;-81
2022/05/04 02:20:54;;;;;;;11.57;7.07;;;180.10;2252.80;;;;;;4867873;29;20398;-83
2022/05/04 02:23:45;;;;;;;10.13;7.10;;;204.80;2252.80;;;;;;4883484;29;20044;-81
2022/05/04 02:26:14;;;;;;;10.18;6.68;;;204.90;2252.80;;;;;;4900506;29;20040;-80
2022/05/04 02:28:45;;;;;;;10.68;7.25;;;205.00;2252.80;;;;;;4884333;29;20116;-82
2022/05/04 02:31:31;;;;;;;23.88;15.65;;;204.90;2252.80;;;;;;4884999;29;20039;-82
2022/05/04 02:34:32;;;;;;;11.57;8.23;;;180.10;2252.80;;;;;;4868098;29;20037;-81
2022/05/04 02:40:39;;;;;;;11.57;6.93;;;180.00;2252.80;;;;;;4901395;29;19955;-82
2022/05/04 02:44:23;;;;;;;10.93;7.28;;;180.10;2252.80;;;;;;4890298;29;20085;-82
2022/05/04 02:47:33;;;;;;;12.25;8.20;;;180.10;2252.80;;;;;;4900715;29;20474;-83
2022/05/04 02:50:47;;;;;;;11.38;7.47;;;179.90;2252.80;;;;;;4877363;29;20033;-84
2022/05/04 02:54:24;;;;;;;10.40;6.95;;;179.90;2252.80;;;;;;4844647;29;20041;-83
2022/05/04 02:57:37;;;;;;;11.20;8.10;;;179.70;2252.80;;;;;;4835082;29;20063;-82
2022/05/04 03:00:45;;;;;;;12.90;7.40;;;179.70;2252.80;;;;;;4882784;29;20574;-81
2022/05/04 03:03:36;;;;;;;12.05;7.30;;;179.80;2252.80;;;;;;4897784;29;20049;-81
2022/05/04 03:06:05;;;;;;;12.10;7.72;;;180.10;2252.80;;;;;;4899921;29;20576;-82
2022/05/04 03:08:56;;;;;;;13.43;8.48;;;204.80;2252.80;;;;;;4899686;29;20529;-81
2022/05/04 03:14:08;;;;;;;14.68;9.35;;;180.00;2252.80;;;;;;4917529;29;20058;-84
2022/05/04 03:16:37;;;;;;;14.95;9.25;;;179.90;2252.80;;;;;;4900681;29;20033;-84
2022/05/04 03:19:08;;;;;;;12.93;9.52;;;179.40;2252.80;;;;;;4900955;29;20035;-83
2022/05/04 03:21:43;;;;;;;16.38;9.15;;;179.80;2252.80;;;;;;4885859;29;20047;-82
2022/05/04 03:24:47;;;;;;;15.00;9.32;;;179.40;2252.80;;;;;;4903997;29;20055;-78
2022/05/04 03:28:04;;;;;;;18.23;11.02;;;179.40;2252.80;;;;;;4924287;29;20542;-78
2022/05/04 03:30:59;;;;;;;17.80;11.80;;;179.60;2252.80;;;;;;4901285;29;20500;-81
2022/05/04 03:34:39;;;;;;;15.63;8.77;;;179.60;2252.80;;;;;;4918072;29;20617;-82
2022/05/04 03:37:52;;;;;;;16.92;10.32;;;179.60;2252.80;;;;;;4895820;29;20755;-83
2022/05/04 03:40:59;;;;;;;13.38;8.52;;;179.70;2252.80;;;;;;4864718;29;20039;-81
2022/05/04 03:44:32;;;;;;;18.75;12.45;;;179.60;2252.80;;;;;;4851687;29;20412;-81
2022/05/04 03:47:19;;;;;;;16.02;10.65;;;179.60;2252.80;;;;;;4827058;29;20041;-80
2022/05/04 03:49:59;;;;;;;20.17;14.70;;;179.60;2252.80;;;;;;4853609;29;20033;-81
2022/05/04 03:53:12;;;;;;;21.55;13.13;;;179.60;2252.80;;;;;;4844318;29;20046;-82
2022/05/04 03:57:03;;;;;;;19.13;11.60;;;179.70;2252.80;;;;;;4845668;29;20484;-82
2022/05/04 04:00:47;;;;;;;14.65;8.65;;;179.60;2252.80;;;;;;4751297;30;20038;-81
2022/05/04 04:04:23;;;;;;;14.32;8.55;;;179.70;2252.80;;;;;;4731232;30;20560;-81
2022/05/04 04:18:50;;;;;;;12.63;9.07;;;179.80;2252.80;;;;;;4620352;30;20104;-83
2022/05/04 04:22:17;;;;;;;11.75;8.05;;;179.40;2252.80;;;;;;4673792;30;20646;-82
2022/05/04 04:25:43;;;;;;;11.68;7.28;;;179.80;2252.80;;;;;;4651428;30;20069;-83
2022/05/04 04:32:32;;;;;;;;;;;179.70;2252.80;;;;;;4698630;30;20056;-83
2022/05/04 04:35:38;;;;;;;14.07;8.68;;;179.50;2252.80;;;;;;4699152;30;19922;-83
2022/05/04 04:38:51;;;;;;;16.48;10.15;;;179.60;2252.80;;;;;;4786295;30;20039;-78
2022/05/04 04:41:59;;;;;;;16.40;8.70;;;179.60;2252.80;;;;;;4768322;30;20146;-82
2022/05/04 04:45:00;;;;;;;14.93;8.93;;;179.70;2252.80;;;;;;4762400;30;20044;-81
2022/05/04 04:47:56;;;;;;;18.50;8.85;;;179.80;2252.80;;;;;;4761627;30;20036;-82
2022/05/04 04:51:05;;;;;;;15.55;10.60;;;180.00;2252.80;;;;;;4772152;30;20469;-83
2022/05/04 04:54:41;;;;;;;15.95;8.70;;;180.10;2252.80;;;;;;4814106;29;20042;-83
2022/05/04 04:58:11;;;;;;;12.68;8.90;;;180.10;2252.80;;;;;;4812067;29;20397;-80
2022/05/04 05:01:54;;;;;;;18.25;9.13;;;204.90;2252.80;;;;;;4821947;29;20094;-83
2022/05/04 05:21:46;;;;;;;12.02;8.55;;;205.30;2252.80;;;;;;4839567;29;20416;-82
2022/05/04 05:25:16;;;;;;;20.42;13.25;;;205.40;2252.80;;;;;;4878497;29;20131;-84
2022/05/04 05:28:53;;;;;;;18.45;9.95;;;205.40;2252.80;;;;;;4827679;29;20058;-83
2022/05/04 05:32:23;;;;;;;15.68;9.13;;;205.40;2252.80;;;;;;4803032;29;20441;-81
2022/05/04 05:36:01;;;;;;;14.05;9.02;;;205.60;2252.80;;;;;;4766886;30;20123;-84
2022/05/04 05:39:52;;;;;;;18.58;10.70;;;205.70;2252.80;;;;;;4732790;30;20119;-82
2022/05/04 05:42:55;;;;;;;14.50;9.43;;;230.50;2252.80;;;;;;4698174;30;20038;-83
2022/05/04 05:45:45;;;;;;;14.15;9.95;;;230.70;2252.80;;;;;;4670597;30;20560;-82
2022/05/04 05:48:21;;;;;;;16.15;9.80;;;230.70;2252.80;;;;;;4696845;30;20038;-82
2022/05/04 05:50:59;;;;;;;16.50;8.93;;;230.70;2252.80;;;;;;4686225;30;20038;-83
2022/05/04 05:54:19;;;;;;;16.95;9.05;;;230.90;2252.80;;;;;;4687397;30;20053;-83
2022/05/04 05:57:03;;;;;;;14.70;8.80;;;231.00;2252.80;;;;;;4690542;30;20109;-83
2022/05/04 05:59:37;;;;;;;13.38;8.82;;;231.10;2252.80;;;;;;4697516;30;20045;-84
2022/05/04 06:02:08;;;;;;;15.27;8.35;;;231.20;2252.80;;;;;;4696961;30;20061;-83
2022/05/04 06:04:34;;;;;;;16.67;8.13;;;231.20;2252.80;;;;;;4699577;30;20034;-82
2022/05/04 06:07:01;;;;;;;9.75;6.82;;;256.00;2252.80;;;;;;4728578;30;20131;-82
2022/05/04 06:09:29;;;;;;;13.48;6.85;;;256.20;2252.80;;;;;;4777680;29;20054;-83
2022/05/04 06:12:25;;;;;;;12.63;7.13;;;256.30;2252.80;;;;;;4798979;29;20038;-84
2022/05/04 06:15:03;;;;;;;14.13;6.72;;;256.40;2252.80;;;;;;4872891;29;20044;-82
2022/05/04 06:17:46;;;;;;;10.63;6.70;;;256.50;2252.80;;;;;;4862155;29;20060;-82
2022/05/04 06:20:14;;;;;;;12.85;7.05;;;256.60;2252.80;;;;;;4847122;29;20046;-84
2022/05/04 06:22:51;;;;;;;12.18;7.15;;;231.30;2252.80;;;;;;4861244;29;20053;-83
2022/05/04 06:28:25;;;;;;;14.35;9.02;;;281.70;2278.40;;;;;;4851380;29;20568;-81
2022/05/04 06:34:41;;;;;;;13.40;8.07;;;282.10;2278.40;;;;;;4899918;29;20410;-82
2022/05/04 06:37:16;;;;;;;16.92;10.40;;;282.20;2278.40;;;;;;4899609;29;20487;-84
2022/05/04 06:39:44;;;;;;;11.85;8.80;;;282.50;2278.40;;;;;;4881205;29;20036;-83
2022/05/04 06:42:17;;;;;;;13.25;7.97;;;307.20;2304.00;;;;;;4901598;29;20486;-83
2022/05/04 06:44:43;;;;;;;12.75;7.90;;;307.30;2304.00;;;;;;4884914;29;20052;-83
2022/05/04 06:47:10;;;;;;;12.48;8.45;;;307.50;2304.00;;;;;;4902173;29;20051;-83
2022/05/04 06:49:45;;;;;;;11.27;7.32;;;307.70;2304.00;;;;;;4901872;29;20031;-82
2022/05/04 06:52:37;;;;;;;13.70;8.52;;;307.80;2304.00;;;;;;4888167;29;20399;-82
2022/05/04 06:55:17;;;;;;;12.88;10.18;;;308.00;2304.00;;;;;;4870634;29;20038;-82
2022/05/04 06:57:44;;;;;;;21.30;12.23;;;332.80;2329.60;;;;;;4883011;29;20028;-82
2022/05/04 07:00:30;;;;;;;14.27;12.05;;;332.90;2329.60;;;;;;4883436;29;20467;-81
2022/05/04 07:03:06;;;;;;;20.35;15.15;;;333.10;2329.60;;;;;;4900373;29;20062;-82
2022/05/04 07:05:32;;;;;;;16.42;14.18;;;333.30;2329.60;;;;;;4901550;29;20483;-83
2022/05/04 07:08:02;;;;;;;23.40;17.15;;;333.40;2329.60;;;;;;4901649;29;20035;-78
2022/05/04 07:10:37;;;;;;;18.48;16.52;;;333.50;2329.60;;;;;;4901671;29;20029;-81
2022/05/04 07:13:03;;;;;;;22.42;18.23;;;333.50;2329.60;;;;;;4901643;29;20039;-82
2022/05/04 07:15:29;;;;;;;18.35;13.23;;;333.60;2329.60;;;;;;4902283;29;20121;-81
2022/05/04 07:17:58;;;;;;;16.90;12.93;;;358.40;2329.60;;;;;;4890262;29;20052;-81
2022/05/04 07:20:25;;;;;;;16.10;14.27;;;358.60;2329.60;;;;;;4883245;29;20024;-79
2022/05/04 07:22:51;;;;;;;16.98;14.40;;;358.50;2329.60;;;;;;4882166;29;20071;-81
2022/05/04 07:25:17;;;;;;;17.23;11.98;;;358.60;2329.60;;;;;;4882553;29;20040;-81
2022/05/04 07:27:43;;;;;;;14.15;10.50;;;358.80;2329.60;;;;;;4882254;29;20122;-82
2022/05/04 07:30:10;;;;;;;13.13;10.30;;;359.00;2329.60;;;;;;4899935;29;20028;-80
2022/05/04 07:32:39;;;;;;;12.65;9.18;;;359.10;2329.60;;;;;;4882790;29;20028;-81
2022/05/04 07:35:11;;;;;;;11.57;8.93;;;384.00;2329.60;;;;;;4882952;29;20036;-81
2022/05/04 07:37:38;;;;;;;13.68;8.45;;;359.30;2329.60;;;;;;4883117;29;20024;-82
2022/05/04 07:42:57;;;;;;;12.20;9.40;;;359.20;2329.60;;;;;;4900551;29;20051;-82
2022/05/04 07:45:32;;;;;;;12.52;9.55;;;384.10;2329.60;;;;;;4906175;29;20518;-84
2022/05/04 07:48:09;;;;;;;12.15;8.27;;;384.40;2329.60;;;;;;4914253;29;20028;-81
2022/05/04 07:50:49;;;;;;;;;;;;;;;;;;;;;
2022/05/04 07:53:18;;;;;;;13.30;8.73;;;384.70;2329.60;;;;;;4917667;29;20040;-78
2022/05/04 07:56:10;;;;;;;11.07;8.60;;;384.70;2329.60;;;;;;4906220;29;20039;-82
2022/05/04 07:58:35;;;;;;;10.43;8.05;;;409.70;2355.20;;;;;;4922771;29;20024;-81
2022/05/04 08:04:58;;;;;;;11.23;8.20;;;409.80;2355.20;;;;;;4918945;29;20032;-80
2022/05/04 08:07:22;;;;;;;9.60;7.05;;;409.90;2355.20;;;;;;4890620;29;20538;-81
2022/05/04 08:09:48;;;;;;;11.10;7.63;;;409.80;2355.20;;;;;;4882798;29;20025;-81
2022/05/04 08:12:14;;;;;;;10.43;6.13;;;410.20;2355.20;;;;;;4898361;29;20028;-80
2022/05/04 08:14:40;;;;;;;10.15;6.35;;;410.50;2355.20;;;;;;4917169;29;20398;-81
2022/05/04 08:17:07;;;;;;;11.70;8.15;;;435.30;2355.20;;;;;;4913383;29;20053;-84
2022/05/04 08:19:34;;;;;;;9.68;6.65;;;435.30;2355.20;;;;;;4898183;29;20028;-83
2022/05/04 08:22:00;;;;;;;9.88;7.20;;;435.60;2355.20;;;;;;4898050;29;20025;-84
2022/05/04 08:24:27;;;;;;;9.35;6.88;;;435.80;2355.20;;;;;;4897519;29;20033;-82
2022/05/04 08:26:53;;;;;;;7.18;5.45;;;436.00;2355.20;;;;;;4897185;29;20037;-80
2022/05/04 08:29:19;;;;;;;10.73;5.15;;;436.10;2355.20;;;;;;4896220;29;20111;-83
2022/05/04 08:31:45;;;;;;;7.43;5.57;;;460.80;2380.80;;;;;;4892789;29;20032;-78
2022/05/04 08:34:11;;;;;;;8.77;5.22;;;460.90;2380.80;;;;;;4878532;29;20033;-80
2022/05/04 08:36:37;;;;;;;10.52;5.53;;;460.80;2380.80;;;;;;4878783;29;20112;-79
2022/05/04 08:39:12;;;;;;;9.07;5.43;;;435.80;2355.20;;;;;;4863404;29;20115;-81
2022/05/04 08:41:40;;;;;;;9.75;5.50;;;435.80;2355.20;;;;;;4878846;29;20029;-80
2022/05/04 08:44:11;;;;;;;10.50;6.60;;;436.00;2355.20;;;;;;4895529;29;20119;-80
2022/05/04 08:46:42;;;;;;;12.30;10.30;;;436.10;2355.20;;;;;;4880618;29;20043;-81
2022/05/04 08:49:11;;;;;;;12.52;8.48;;;461.20;2380.80;;;;;;4896940;29;20052;-80
2022/05/04 08:51:37;;;;;;;9.32;8.23;;;461.60;2380.80;;;;;;4897459;29;20029;-81
2022/05/04 08:54:04;;;;;;;10.25;6.97;;;461.50;2380.80;;;;;;4897278;29;20068;-81
2022/05/04 08:56:31;;;;;;;10.05;6.88;;;461.60;2380.80;;;;;;4898608;29;20029;-81
2022/05/04 08:58:57;;;;;;;12.07;6.97;;;486.40;2380.80;;;;;;4898002;29;20047;-79
2022/05/04 09:01:25;;;;;;;11.60;6.80;;;486.50;2304.00;;;;;;4900083;29;20475;-78
2022/05/04 09:03:51;;;;;;;10.25;7.40;;;486.70;2304.00;;;;;;4901276;29;20064;-78
2022/05/04 09:06:30;;;;;;;8.02;5.57;;;486.70;2227.20;;;;;;4897978;29;20039;-78
2022/05/04 09:09:04;;;;;;;10.02;6.13;;;486.60;2227.20;;;;;;4898209;29;20032;-78
2022/05/04 09:11:32;;;;;;;7.15;5.28;;;486.80;2252.80;;;;;;4897466;29;20061;-78
2022/05/04 09:13:58;;;;;;;9.90;6.53;;;486.70;2176.00;;;;;;4912677;29;20475;-81
2022/05/04 09:16:32;;;;;;;9.50;5.65;;;486.50;2227.20;;;;;;4899940;29;20135;-80
2022/05/04 09:19:05;;;;;;;8.20;5.03;;;487.00;2252.80;;;;;;4916935;29;20064;-81
2022/05/04 09:21:30;;;;;;;;;;;487.30;2201.60;;;;;;4916012;29;20036;-77
2022/05/04 09:23:56;;;;;;;6.70;5.13;;;512.20;2150.40;;;;;;4916365;29;19911;-80
2022/05/04 09:26:23;;;;;;;9.05;5.40;;;512.50;2124.80;;;;;;4899236;29;20126;-80
2022/05/04 09:29:01;;;;;;;5.53;3.80;;;512.80;2073.60;;;;;;4916826;29;20052;-78
2022/05/04 09:31:31;;;;;;;12.60;9.73;;;512.50;1996.80;;;;;;4908609;29;20061;-78
2022/05/04 09:34:02;;;;;;;10.68;5.00;;;512.40;1996.80;;;;;;4881072;29;20040;-79
2022/05/04 09:44:54;;;;;;;8.43;6.70;;;512.70;2022.40;;;;;;4880500;29;20033;-79
2022/05/04 09:45:12;;;;;;;8.23;4.80;;;538.50;1945.60;;;;;;4901258;29;20683;-78
2022/05/04 09:47:39;;;;;;;8.48;5.63;;;563.20;1894.40;;;;;;4900930;29;20036;-80
2022/05/04 09:50:05;;;;;;;9.48;4.93;;;563.40;1868.80;;;;;;4903121;29;20475;-77
2022/05/04 09:52:41;;;;;;;7.78;4.43;;;563.80;1894.40;;;;;;4903065;29;20028;-77
2022/05/04 09:55:24;;;;;;;8.27;4.40;;;564.10;1817.60;;;;;;4919742;29;20028;-77
2022/05/04 09:57:51;;;;;;;7.63;4.35;;;588.80;1792.00;;;;;;4903068;29;20028;-77
2022/05/04 10:00:21;;;;;;;6.75;5.00;;;589.10;1843.20;;;;;;4920091;29;20028;-77
2022/05/04 10:02:48;;;;;;;5.22;3.72;;;589.20;1740.80;;;;;;4925281;29;20056;-78
2022/05/04 10:05:16;;;;;;;10.23;4.25;;;588.90;1766.40;;;;;;4903176;29;20040;-79
2022/05/04 10:07:42;;;;;;;9.68;3.95;;;589.50;1817.60;;;;;;4916478;29;20024;-78
2022/05/04 10:10:10;;;;;;;8.10;4.90;;;589.30;1715.20;;;;;;4919193;29;20036;-78
2022/05/04 10:12:41;;;;;;;7.22;4.28;;;589.70;1715.20;;;;;;4919784;29;20031;-78
2022/05/04 10:15:10;;;;;;;6.10;3.87;;;614.60;1715.20;;;;;;4919088;29;20028;-79
2022/05/04 10:18:01;;;;;;;5.90;3.92;;;614.80;1740.80;;;;;;4902879;29;20365;-79
2022/05/04 10:20:37;;;;;;;9.07;4.38;;;614.90;1689.60;;;;;;4893086;29;20039;-79
2022/05/04 10:23:22;;;;;;;7.65;3.95;;;615.10;1664.00;;;;;;4900095;29;20482;-78
2022/05/04 10:25:50;;;;;;;6.00;3.80;;;615.10;1664.00;;;;;;4917137;29;20182;-79
2022/05/04 10:28:17;;;;;;;5.13;3.75;;;615.20;1689.60;;;;;;4901717;29;20122;-78
2022/05/04 10:30:51;;;;;;;7.70;4.13;;;615.20;1638.40;;;;;;4902590;29;20028;-78
2022/05/04 10:33:18;;;;;;;6.72;3.50;;;614.90;1689.60;;;;;;4902735;29;20036;-77
2022/05/04 10:35:50;;;;;;;8.75;3.83;;;615.00;1664.00;;;;;;4919571;29;20061;-78
2022/05/04 10:38:29;;;;;;;6.40;2.78;;;614.60;1638.40;;;;;;4919277;29;20025;-80
2022/05/04 10:41:02;;;;;;;8.35;2.58;;;614.60;1587.20;;;;;;4902697;29;20043;-78
2022/05/04 10:43:42;;;;;;;4.78;2.63;;;614.50;1612.80;;;;;;4919014;29;20028;-79
2022/05/04 10:46:09;;;;;;;5.03;2.70;;;614.80;1587.20;;;;;;4913318;29;20080;-77
2022/05/04 10:48:36;;;;;;;8.45;2.65;;;615.10;1612.80;;;;;;4883907;29;20039;-78
2022/05/04 10:51:09;;;;;;;3.83;2.50;;;615.20;1638.40;;;;;;4883116;29;20033;-77
2022/05/04 10:53:38;;;;;;;4.25;2.70;;;615.20;1587.20;;;;;;4899585;29;20031;-78
2022/05/04 10:56:12;;;;;;;6.05;2.75;;;615.30;1587.20;;;;;;4883559;29;20487;-78
2022/05/04 10:58:50;;;;;;;5.10;2.75;;;615.20;1561.60;;;;;;4889353;29;20036;-78
2022/05/04 11:01:30;;;;;;;6.47;2.80;;;640.10;1587.20;;;;;;4901378;29;20039;-78
2022/05/04 11:03:57;;;;;;;7.32;2.95;;;640.10;1587.20;;;;;;4901827;29;20047;-78
2022/05/04 11:06:31;;;;;;;3.72;2.45;;;640.20;1536.00;;;;;;4901266;29;20035;-77
2022/05/04 11:09:02;;;;;;;7.22;2.97;;;615.30;1510.40;;;;;;4902060;29;20412;-77
2022/05/04 11:11:28;;;;;;;6.25;2.85;;;640.50;1510.40;;;;;;4901924;29;20474;-78
2022/05/04 11:13:54;;;;;;;5.57;3.08;;;640.90;1536.00;;;;;;4902072;29;20032;-77
2022/05/04 11:16:26;;;;;;;4.18;2.80;;;665.70;1510.40;;;;;;4900946;29;20066;-78
2022/05/04 11:18:52;;;;;;;4.95;3.45;;;666.20;1510.40;;;;;;4917475;29;20032;-78
2022/05/04 11:21:18;;;;;;;6.38;2.55;;;640.50;1536.00;;;;;;4917155;29;20083;-78
2022/05/04 11:23:52;;;;;;;3.67;2.35;;;640.60;1536.00;;;;;;4917339;29;20535;-77
2022/05/04 11:26:21;;;;;;;4.13;2.40;;;665.60;1484.80;;;;;;4917167;29;20471;-77
2022/05/04 11:28:48;;;;;;;5.28;2.38;;;640.70;1484.80;;;;;;4916922;29;20100;-78
2022/05/04 11:31:14;;;;;;;5.40;3.10;;;640.00;1536.00;;;;;;4916624;29;20047;-76
2022/05/04 11:33:42;;;;;;;3.85;2.58;;;640.00;1587.20;;;;;;4917119;29;20068;-77
2022/05/04 11:36:08;;;;;;;6.05;2.47;;;640.30;1561.60;;;;;;4917081;29;20119;-78
2022/05/04 11:38:34;;;;;;;5.32;2.85;;;640.20;1561.60;;;;;;4901231;29;20488;-77
2022/05/04 11:41:01;;;;;;;8.05;3.22;;;615.30;1561.60;;;;;;4916369;29;20028;-78
2022/05/04 11:43:34;;;;;;;5.57;3.53;;;640.90;1536.00;;;;;;4916307;29;20038;-78
2022/05/04 11:46:09;;;;;;;4.10;2.75;;;666.00;1484.80;;;;;;4914289;29;20032;-78
2022/05/04 11:48:42;;;;;;;4.65;2.85;;;666.20;1484.80;;;;;;4917262;29;20028;-77
2022/05/04 11:51:35;;;;;;;7.50;3.28;;;665.70;1510.40;;;;;;5237653;23;20062;-77
2022/05/04 11:54:02;;;;;;;4.70;2.60;;;666.40;1561.60;;;;;;4918117;29;20055;-78
2022/05/04 11:56:28;;;;;;;5.47;2.72;;;666.30;1510.40;;;;;;4918820;29;20038;-78
2022/05/04 11:58:54;;;;;;;5.07;2.85;;;665.70;1484.80;;;;;;4901327;29;20020;-79
2022/05/04 12:01:20;;;;;;;5.15;3.20;;;640.30;1510.40;;;;;;4901105;29;20059;-78
2022/05/04 12:03:46;;;;;;;4.43;2.88;;;640.00;1536.00;;;;;;4918037;29;20031;-79
2022/05/04 12:06:12;;;;;;;4.93;2.65;;;615.20;1561.60;;;;;;4901153;29;20366;-78
2022/05/04 12:08:40;;;;;;;6.53;3.22;;;614.90;1587.20;;;;;;4900876;29;20107;-78
2022/05/04 12:11:08;;;;;;;4.35;2.63;;;614.70;1587.20;;;;;;4901223;29;20056;-77
2022/05/04 12:13:43;;;;;;;5.22;3.17;;;614.60;1561.60;;;;;;4901082;29;20080;-77
2022/05/04 12:16:11;;;;;;;4.60;2.75;;;615.30;1536.00;;;;;;4918374;29;20024;-76
2022/05/04 12:18:38;;;;;;;5.43;2.92;;;640.20;1484.80;;;;;;4918043;29;20028;-78
2022/05/04 12:21:08;;;;;;;5.57;3.10;;;640.40;1484.80;;;;;;4917800;29;20115;-80
2022/05/04 12:23:37;;;;;;;6.07;2.58;;;640.00;1484.80;;;;;;4916882;29;20028;-79
2022/05/04 12:26:04;;;;;;;5.85;3.00;;;614.80;1536.00;;;;;;4900972;29;20028;-79
2022/05/04 12:28:30;;;;;;;8.35;2.70;;;615.20;1510.40;;;;;;4917744;29;20024;-79
2022/05/04 12:33:42;;;;;;;4.90;2.67;;;640.20;1459.20;;;;;;4917879;29;20051;-78
2022/05/04 12:36:10;;;;;;;6.82;3.47;;;640.70;1433.60;;;;;;4900411;29;20393;-78
2022/05/04 12:38:37;;;;;;;5.25;2.60;;;640.70;1433.60;;;;;;4900464;29;20079;-78
2022/05/04 12:41:05;;;;;;;5.60;2.90;;;665.60;1484.80;;;;;;4917550;29;20539;-80
2022/05/04 12:43:36;;;;;;;4.63;2.42;;;665.60;1459.20;;;;;;4900428;29;20385;-79
2022/05/04 12:46:03;;;;;;;4.60;2.97;;;665.90;1459.20;;;;;;4917340;29;20553;-77
2022/05/04 12:48:30;;;;;;;3.95;2.35;;;666.00;1484.80;;;;;;4900599;29;20032;-79
2022/05/04 12:50:57;;;;;;;5.97;2.92;;;666.30;1433.60;;;;;;4917269;29;20418;-80
2022/05/04 12:53:25;;;;;;;7.25;2.90;;;666.50;1433.60;;;;;;4917536;29;20107;-77
2022/05/04 12:58:35;;;;;;;6.88;2.60;;;691.20;1433.60;;;;;;4917466;29;20508;-79
2022/05/04 13:01:02;;;;;;;6.88;2.40;;;691.70;1408.00;;;;;;4900462;29;20083;-77
2022/05/04 13:03:28;;;;;;;6.82;2.70;;;691.60;1408.00;;;;;;4916906;29;20389;-78
2022/05/04 13:05:54;;;;;;;5.25;2.88;;;691.80;1356.80;;;;;;4900387;29;20082;-76
2022/05/04 13:08:20;;;;;;;6.18;2.47;;;716.80;1433.60;;;;;;4900452;29;20080;-78
2022/05/04 13:10:48;;;;;;;5.75;2.90;;;716.90;1408.00;;;;;;4900162;29;20024;-76
2022/05/04 13:13:15;;;;;;;5.78;3.65;;;692.00;1356.80;;;;;;4900413;29;20107;-77
2022/05/04 13:15:40;;;;;;;4.50;2.75;;;716.80;1408.00;;;;;;4917149;29;20034;-77
2022/05/04 13:18:08;;;;;;;6.50;2.90;;;717.20;1382.40;;;;;;4904125;29;20032;-78
2022/05/04 13:20:34;;;;;;;9.10;2.85;;;717.10;1408.00;;;;;;4904243;29;20035;-76
2022/05/04 13:23:00;;;;;;;5.80;2.58;;;717.10;1382.40;;;;;;4904435;29;20028;-78
2022/05/04 13:25:26;;;;;;;8.40;2.60;;;717.30;1433.60;;;;;;4921016;29;20063;-76
2022/05/04 13:27:51;;;;;;;6.32;2.70;;;717.50;1408.00;;;;;;4921394;29;20458;-77
2022/05/04 13:30:17;;;;;;;4.68;2.63;;;717.50;1408.00;;;;;;4904166;29;20088;-77
2022/05/04 13:32:43;;;;;;;5.25;2.97;;;717.40;1382.40;;;;;;4920844;29;20028;-77
2022/05/04 13:35:09;;;;;;;5.75;2.70;;;717.40;1382.40;;;;;;4904293;29;20036;-77
2022/05/04 13:37:35;;;;;;;3.80;2.13;;;717.10;1382.40;;;;;;4904136;29;20059;-78
2022/05/04 13:40:00;;;;;;;5.53;2.47;;;717.10;1356.80;;;;;;4897797;29;20538;-77
2022/05/04 13:42:26;;;;;;;4.85;2.10;;;717.10;1356.80;;;;;;4883829;29;20433;-77
2022/05/04 13:44:52;;;;;;;5.50;2.75;;;717.20;1382.40;;;;;;4886831;29;20032;-78
2022/05/04 13:47:18;;;;;;;5.00;2.60;;;716.90;1408.00;;;;;;4918964;29;20385;-79
2022/05/04 13:49:43;;;;;;;4.13;2.30;;;717.20;1408.00;;;;;;4918951;29;20029;-78
2022/05/04 13:54:54;;;;;;;4.82;2.45;;;717.00;1382.40;;;;;;4901031;29;20096;-77
2022/05/04 13:57:19;;;;;;;4.20;2.72;;;717.10;1382.40;;;;;;4922405;29;20028;-76
2022/05/04 13:59:45;;;;;;;4.85;2.78;;;717.40;1356.80;;;;;;4924891;29;20024;-76
2022/05/04 14:02:11;;;;;;;6.13;2.70;;;717.50;1382.40;;;;;;4920491;29;20028;-76
2022/05/04 14:04:40;;;;;;;8.00;3.10;;;717.40;1331.20;;;;;;4919199;29;20040;-76
2022/05/04 14:07:06;;;;;;;4.72;1.92;;;717.40;1331.20;;;;;;4902498;29;20096;-77
2022/05/04 14:09:32;;;;;;;6.43;2.20;;;717.00;1331.20;;;;;;4903272;29;20118;-75
2022/05/04 14:12:00;;;;;;;4.70;2.92;;;716.90;1331.20;;;;;;4919156;29;20358;-77
2022/05/04 14:17:10;;;;;;;6.22;2.50;;;717.20;1382.40;;;;;;4920188;29;20054;-77
2022/05/04 14:19:36;;;;;;;5.53;2.58;;;717.50;1382.40;;;;;;4902978;29;20084;-75
2022/05/04 14:22:03;;;;;;;5.75;2.83;;;717.70;1356.80;;;;;;4903067;29;20075;-76
2022/05/04 14:24:29;;;;;;;5.65;3.42;;;717.70;1331.20;;;;;;4902686;29;20129;-78
2022/05/04 14:26:55;;;;;;;4.65;2.72;;;717.70;1356.80;;;;;;4919152;29;20028;-76
2022/05/04 14:29:22;;;;;;;5.10;2.72;;;717.70;1331.20;;;;;;4903093;29;20119;-77
2022/05/04 14:31:49;;;;;;;7.82;3.22;;;717.70;1305.60;;;;;;4918142;29;20505;-78
2022/05/04 14:34:15;;;;;;;5.25;2.55;;;742.40;1382.40;;;;;;4902751;29;20147;-77
2022/05/04 14:36:41;;;;;;;4.05;2.10;;;742.40;1356.80;;;;;;4905301;29;20031;-76